Willow Grove, Kentucky
Current Conditions -  °F | °C
As of 5:35 AM on Sunday 21 Dec 2014 (Local Time) from KFGX Reporting Station
Haze Haze  
Wind Chill: 25°   Ceiling: 1800
Heat Index: 30°   Visibility: 5mi
Dew Point: 27°   Wind: 5mph
Humidity: 88%   Direction: 40°NE
Pressure: 30.31"   Gusts: NA
Location:  38.7475°N, 84.1516°W
Report Text: KFGX 211035Z AUTO 04004KT 5SM BR OVC018 M01/M03 A3031 RMK AO2 T10131030
Loading
Personal Weather Stations






























Interactive Weather Map New forecast layout! Learn more

10-Day Weather Forecast

Advertisements
Track Severe Weather on mobile